If you wish to contribute or participate in the discussions about articles you are invited to join SKYbrary as a registered user

 Actions

Armilla Airport

From SKYbrary Wiki

LEGA
Airport
ICAO: LEGA
Summary
Name Armilla Airport
Region Europe
Territory Spain ES.gif
Location , Andalucia
Serving Granada
Elevation 700.126 m
2,297 ft
2,297 ft700.126 m
Type medium airport
Coordinates 37° 7' 59.60" N, 3° 38' 8.50" W
Runways
Designator Length Width Surface ROPS
18/36 1300 m4,265.092 ft
30 m98.425 ft
ASP /


METAR
Observation LEGA 140800Z 35007KT 9999 FEW022 02/00 Q1022
Station Granada / Armilla
Date/Time 14 December 2018 08:00:00
Wind direction 350°
Wind speed 07 kts
Lowest cloud amount few clouds
Temperature 2°C
Dew point 0°C
Humidity 86%
QNH 1022 hPa
Weather condition n/a